Weather at Tebelian Airport

Public forecast

Using degrees Celsius for public forecast. Weather courtesy of forecast.io.

Closest aviation weather report (METAR) to Tebelian Airport

Closest report is Simanggang Airport, 76.1 nm (140.9 km) N.

(retrieved 0 seconds ago)

Closest aviation forecast (TAF) to Tebelian Airport

Closest forecast is Kuching International Airport, 113.4 nm (210.1 km) NW.

2024/05/21 06:12 (retrieved 2 hours ago)

TAF TAF WBGG 210500Z 2106/2206 VRB03KT 9999 FEW020 TEMPO 2107/2111 19010KT 5000 TSRA FEW015CB SCT020